sensor_id;sensor_type;location;lat;lon;timestamp;P1;durP1;ratioP1;P2;durP2;ratioP2
7545;SDS011;3814;51.454;12.616;2022-12-28T00:02:05;8.30;;;2.85;;
7545;SDS011;3814;51.454;12.616;2022-12-28T00:04:30;12.07;;;3.90;;
7545;SDS011;3814;51.454;12.616;2022-12-28T00:06:55;8.55;;;2.60;;
7545;SDS011;3814;51.454;12.616;2022-12-28T00:09:21;6.60;;;3.05;;
7545;SDS011;3814;51.454;12.616;2022-12-28T00:11:46;5.22;;;2.45;;
7545;SDS011;3814;51.454;12.616;2022-12-28T00:14:11;6.35;;;2.67;;
7545;SDS011;3814;51.454;12.616;2022-12-28T00:16:38;6.85;;;2.70;;
7545;SDS011;3814;51.454;12.616;2022-12-28T00:19:06;5.88;;;2.30;;
7545;SDS011;3814;51.454;12.616;2022-12-28T00:21:34;6.55;;;2.78;;
7545;SDS011;3814;51.454;12.616;2022-12-28T00:24:00;8.27;;;2.80;;
7545;SDS011;3814;51.454;12.616;2022-12-28T00:26:26;5.78;;;2.58;;
7545;SDS011;3814;51.454;12.616;2022-12-28T00:28:52;6.75;;;2.40;;
7545;SDS011;3814;51.454;12.616;2022-12-28T00:31:18;7.47;;;2.92;;
7545;SDS011;3814;51.454;12.616;2022-12-28T00:33:43;11.27;;;2.67;;
7545;SDS011;3814;51.454;12.616;2022-12-28T00:36:10;6.68;;;2.80;;
7545;SDS011;3814;51.454;12.616;2022-12-28T00:38:36;5.43;;;2.50;;
7545;SDS011;3814;51.454;12.616;2022-12-28T00:41:02;5.10;;;2.50;;
7545;SDS011;3814;51.454;12.616;2022-12-28T00:43:28;10.45;;;2.70;;
7545;SDS011;3814;51.454;12.616;2022-12-28T00:45:53;6.25;;;2.55;;
7545;SDS011;3814;51.454;12.616;2022-12-28T00:48:19;8.38;;;3.00;;
7545;SDS011;3814;51.454;12.616;2022-12-28T00:50:44;5.82;;;2.42;;
7545;SDS011;3814;51.454;12.616;2022-12-28T00:53:10;5.65;;;2.60;;
7545;SDS011;3814;51.454;12.616;2022-12-28T00:55:36;7.13;;;2.60;;
7545;SDS011;3814;51.454;12.616;2022-12-28T00:58:02;6.85;;;2.47;;
7545;SDS011;3814;51.454;12.616;2022-12-28T01:00:27;7.10;;;2.05;;
7545;SDS011;3814;51.454;12.616;2022-12-28T01:02:53;4.10;;;2.40;;
7545;SDS011;3814;51.454;12.616;2022-12-28T01:05:19;5.07;;;2.55;;
7545;SDS011;3814;51.454;12.616;2022-12-28T01:07:45;6.05;;;2.50;;
7545;SDS011;3814;51.454;12.616;2022-12-28T01:10:10;4.40;;;2.30;;
7545;SDS011;3814;51.454;12.616;2022-12-28T01:12:35;4.53;;;2.08;;
7545;SDS011;3814;51.454;12.616;2022-12-28T01:15:01;6.68;;;2.42;;
7545;SDS011;3814;51.454;12.616;2022-12-28T01:17:27;8.77;;;2.50;;
7545;SDS011;3814;51.454;12.616;2022-12-28T01:19:53;6.75;;;2.47;;
7545;SDS011;3814;51.454;12.616;2022-12-28T01:22:19;4.80;;;2.10;;
7545;SDS011;3814;51.454;12.616;2022-12-28T01:24:44;9.35;;;2.25;;
7545;SDS011;3814;51.454;12.616;2022-12-28T01:27:09;7.90;;;2.35;;
7545;SDS011;3814;51.454;12.616;2022-12-28T01:29:35;5.05;;;2.30;;
7545;SDS011;3814;51.454;12.616;2022-12-28T01:32:00;4.13;;;2.20;;
7545;SDS011;3814;51.454;12.616;2022-12-28T01:34:25;7.63;;;2.40;;
7545;SDS011;3814;51.454;12.616;2022-12-28T01:36:51;6.45;;;2.13;;
7545;SDS011;3814;51.454;12.616;2022-12-28T01:39:16;7.50;;;2.58;;
7545;SDS011;3814;51.454;12.616;2022-12-28T01:41:41;8.35;;;2.38;;
7545;SDS011;3814;51.454;12.616;2022-12-28T01:46:36;6.82;;;2.20;;
7545;SDS011;3814;51.454;12.616;2022-12-28T01:49:10;6.32;;;2.13;;
7545;SDS011;3814;51.454;12.616;2022-12-28T01:51:47;8.10;;;1.90;;
7545;SDS011;3814;51.454;12.616;2022-12-28T01:54:16;5.60;;;2.00;;
7545;SDS011;3814;51.454;12.616;2022-12-28T01:56:42;11.38;;;2.15;;
7545;SDS011;3814;51.454;12.616;2022-12-28T01:59:08;6.28;;;1.95;;
7545;SDS011;3814;51.454;12.616;2022-12-28T02:01:34;4.60;;;1.80;;
7545;SDS011;3814;51.454;12.616;2022-12-28T02:04:00;6.65;;;1.80;;
7545;SDS011;3814;51.454;12.616;2022-12-28T02:06:25;7.22;;;1.73;;
7545;SDS011;3814;51.454;12.616;2022-12-28T02:09:01;6.40;;;1.52;;
7545;SDS011;3814;51.454;12.616;2022-12-28T02:11:30;7.80;;;2.00;;
7545;SDS011;3814;51.454;12.616;2022-12-28T02:13:55;4.20;;;1.50;;
7545;SDS011;3814;51.454;12.616;2022-12-28T02:16:21;4.60;;;1.58;;
7545;SDS011;3814;51.454;12.616;2022-12-28T02:18:47;4.55;;;1.75;;
7545;SDS011;3814;51.454;12.616;2022-12-28T02:24:00;4.05;;;1.50;;
7545;SDS011;3814;51.454;12.616;2022-12-28T02:29:25;5.95;;;1.60;;
7545;SDS011;3814;51.454;12.616;2022-12-28T02:35:00;6.47;;;1.48;;
7545;SDS011;3814;51.454;12.616;2022-12-28T02:37:44;6.00;;;1.50;;
7545;SDS011;3814;51.454;12.616;2022-12-28T02:42:44;9.13;;;1.65;;
7545;SDS011;3814;51.454;12.616;2022-12-28T02:48:42;3.40;;;1.50;;
7545;SDS011;3814;51.454;12.616;2022-12-28T02:54:12;6.32;;;1.63;;
7545;SDS011;3814;51.454;12.616;2022-12-28T03:00:28;3.38;;;1.58;;
7545;SDS011;3814;51.454;12.616;2022-12-28T03:02:52;3.20;;;1.77;;
7545;SDS011;3814;51.454;12.616;2022-12-28T03:08:19;6.65;;;1.80;;
7545;SDS011;3814;51.454;12.616;2022-12-28T03:11:11;6.38;;;1.92;;
7545;SDS011;3814;51.454;12.616;2022-12-28T03:13:48;5.30;;;1.80;;
7545;SDS011;3814;51.454;12.616;2022-12-28T03:18:49;6.28;;;2.08;;
7545;SDS011;3814;51.454;12.616;2022-12-28T03:21:36;6.18;;;1.70;;
7545;SDS011;3814;51.454;12.616;2022-12-28T03:24:20;5.20;;;1.90;;
7545;SDS011;3814;51.454;12.616;2022-12-28T03:27:06;8.32;;;2.10;;
7545;SDS011;3814;51.454;12.616;2022-12-28T03:29:54;7.32;;;1.83;;
7545;SDS011;3814;51.454;12.616;2022-12-28T03:32:49;7.22;;;2.03;;
7545;SDS011;3814;51.454;12.616;2022-12-28T03:35:14;6.53;;;2.20;;
7545;SDS011;3814;51.454;12.616;2022-12-28T03:38:00;6.18;;;2.38;;
7545;SDS011;3814;51.454;12.616;2022-12-28T03:40:32;3.65;;;1.85;;
7545;SDS011;3814;51.454;12.616;2022-12-28T03:43:00;7.30;;;2.15;;
7545;SDS011;3814;51.454;12.616;2022-12-28T03:45:55;5.43;;;1.98;;
7545;SDS011;3814;51.454;12.616;2022-12-28T03:48:22;7.40;;;2.20;;
7545;SDS011;3814;51.454;12.616;2022-12-28T03:50:48;5.93;;;1.98;;
7545;SDS011;3814;51.454;12.616;2022-12-28T03:53:15;6.32;;;2.17;;
7545;SDS011;3814;51.454;12.616;2022-12-28T03:55:42;6.32;;;2.08;;
7545;SDS011;3814;51.454;12.616;2022-12-28T03:58:07;6.68;;;2.03;;
7545;SDS011;3814;51.454;12.616;2022-12-28T04:00:32;6.00;;;2.05;;
7545;SDS011;3814;51.454;12.616;2022-12-28T04:02:58;6.63;;;2.25;;
7545;SDS011;3814;51.454;12.616;2022-12-28T04:05:23;4.32;;;1.70;;
7545;SDS011;3814;51.454;12.616;2022-12-28T04:07:48;7.78;;;1.90;;
7545;SDS011;3814;51.454;12.616;2022-12-28T04:10:14;6.75;;;2.08;;
7545;SDS011;3814;51.454;12.616;2022-12-28T04:12:39;5.28;;;2.05;;
7545;SDS011;3814;51.454;12.616;2022-12-28T04:15:05;4.57;;;2.08;;
7545;SDS011;3814;51.454;12.616;2022-12-28T04:17:30;5.65;;;1.95;;
7545;SDS011;3814;51.454;12.616;2022-12-28T04:19:56;6.18;;;1.83;;
7545;SDS011;3814;51.454;12.616;2022-12-28T04:22:21;5.60;;;1.80;;
7545;SDS011;3814;51.454;12.616;2022-12-28T04:24:46;4.68;;;1.70;;
7545;SDS011;3814;51.454;12.616;2022-12-28T04:27:12;3.90;;;1.77;;
7545;SDS011;3814;51.454;12.616;2022-12-28T04:29:37;5.95;;;1.75;;
7545;SDS011;3814;51.454;12.616;2022-12-28T04:32:02;4.80;;;1.48;;
7545;SDS011;3814;51.454;12.616;2022-12-28T04:34:28;5.25;;;1.60;;
7545;SDS011;3814;51.454;12.616;2022-12-28T04:36:53;4.72;;;1.38;;
7545;SDS011;3814;51.454;12.616;2022-12-28T04:39:18;2.83;;;1.55;;
7545;SDS011;3814;51.454;12.616;2022-12-28T04:41:43;4.65;;;1.48;;
7545;SDS011;3814;51.454;12.616;2022-12-28T04:44:09;4.18;;;1.50;;
7545;SDS011;3814;51.454;12.616;2022-12-28T04:46:34;8.75;;;1.70;;
7545;SDS011;3814;51.454;12.616;2022-12-28T04:48:59;5.90;;;1.70;;
7545;SDS011;3814;51.454;12.616;2022-12-28T04:51:26;5.97;;;1.40;;
7545;SDS011;3814;51.454;12.616;2022-12-28T04:53:52;6.13;;;1.50;;
7545;SDS011;3814;51.454;12.616;2022-12-28T04:56:19;4.35;;;1.23;;
7545;SDS011;3814;51.454;12.616;2022-12-28T04:58:45;5.18;;;1.27;;
7545;SDS011;3814;51.454;12.616;2022-12-28T05:01:12;3.67;;;1.50;;
7545;SDS011;3814;51.454;12.616;2022-12-28T05:03:39;3.42;;;1.50;;
7545;SDS011;3814;51.454;12.616;2022-12-28T05:06:06;6.45;;;1.58;;
7545;SDS011;3814;51.454;12.616;2022-12-28T05:08:34;5.55;;;1.48;;
7545;SDS011;3814;51.454;12.616;2022-12-28T05:11:00;3.28;;;1.30;;
7545;SDS011;3814;51.454;12.616;2022-12-28T05:13:26;5.10;;;1.70;;
7545;SDS011;3814;51.454;12.616;2022-12-28T05:15:52;6.30;;;1.65;;
7545;SDS011;3814;51.454;12.616;2022-12-28T05:18:17;2.75;;;1.30;;
7545;SDS011;3814;51.454;12.616;2022-12-28T05:20:42;5.43;;;1.40;;
7545;SDS011;3814;51.454;12.616;2022-12-28T05:23:08;3.35;;;1.50;;
7545;SDS011;3814;51.454;12.616;2022-12-28T05:25:33;3.97;;;1.33;;
7545;SDS011;3814;51.454;12.616;2022-12-28T05:27:58;4.70;;;1.45;;
7545;SDS011;3814;51.454;12.616;2022-12-28T05:30:24;4.72;;;1.55;;
7545;SDS011;3814;51.454;12.616;2022-12-28T05:32:49;2.72;;;1.50;;
7545;SDS011;3814;51.454;12.616;2022-12-28T05:35:14;5.28;;;1.30;;
7545;SDS011;3814;51.454;12.616;2022-12-28T05:37:39;3.35;;;1.40;;
7545;SDS011;3814;51.454;12.616;2022-12-28T05:40:05;5.32;;;1.45;;
7545;SDS011;3814;51.454;12.616;2022-12-28T05:42:30;3.63;;;1.30;;
7545;SDS011;3814;51.454;12.616;2022-12-28T05:44:56;5.90;;;1.27;;
7545;SDS011;3814;51.454;12.616;2022-12-28T05:47:21;4.70;;;1.40;;
7545;SDS011;3814;51.454;12.616;2022-12-28T05:49:46;3.75;;;1.20;;
7545;SDS011;3814;51.454;12.616;2022-12-28T05:52:12;3.33;;;1.30;;
7545;SDS011;3814;51.454;12.616;2022-12-28T05:54:37;3.92;;;1.17;;
7545;SDS011;3814;51.454;12.616;2022-12-28T05:57:02;2.40;;;1.27;;
7545;SDS011;3814;51.454;12.616;2022-12-28T05:59:28;4.82;;;1.20;;
7545;SDS011;3814;51.454;12.616;2022-12-28T06:01:53;2.65;;;1.08;;
7545;SDS011;3814;51.454;12.616;2022-12-28T06:04:19;5.43;;;1.20;;
7545;SDS011;3814;51.454;12.616;2022-12-28T06:06:45;4.22;;;1.23;;
7545;SDS011;3814;51.454;12.616;2022-12-28T06:09:11;3.63;;;1.20;;
7545;SDS011;3814;51.454;12.616;2022-12-28T06:11:36;4.15;;;1.08;;
7545;SDS011;3814;51.454;12.616;2022-12-28T06:14:02;4.72;;;1.25;;
7545;SDS011;3814;51.454;12.616;2022-12-28T06:16:30;4.72;;;1.13;;
7545;SDS011;3814;51.454;12.616;2022-12-28T06:18:56;3.80;;;1.08;;
7545;SDS011;3814;51.454;12.616;2022-12-28T06:21:29;3.75;;;1.10;;
7545;SDS011;3814;51.454;12.616;2022-12-28T06:23:55;3.70;;;1.13;;
7545;SDS011;3814;51.454;12.616;2022-12-28T06:26:22;4.60;;;1.40;;
7545;SDS011;3814;51.454;12.616;2022-12-28T06:28:48;3.65;;;1.10;;
7545;SDS011;3814;51.454;12.616;2022-12-28T06:31:17;4.13;;;1.10;;
7545;SDS011;3814;51.454;12.616;2022-12-28T06:33:44;2.15;;;0.95;;
7545;SDS011;3814;51.454;12.616;2022-12-28T06:36:11;3.78;;;1.10;;
7545;SDS011;3814;51.454;12.616;2022-12-28T06:38:40;3.92;;;1.20;;
7545;SDS011;3814;51.454;12.616;2022-12-28T06:41:07;3.88;;;1.50;;
7545;SDS011;3814;51.454;12.616;2022-12-28T06:43:34;3.15;;;1.38;;
7545;SDS011;3814;51.454;12.616;2022-12-28T06:46:00;2.35;;;1.02;;
7545;SDS011;3814;51.454;12.616;2022-12-28T06:48:27;6.57;;;1.35;;
7545;SDS011;3814;51.454;12.616;2022-12-28T06:50:54;5.95;;;1.48;;
7545;SDS011;3814;51.454;12.616;2022-12-28T06:53:23;3.80;;;1.20;;
7545;SDS011;3814;51.454;12.616;2022-12-28T06:55:53;2.80;;;1.10;;
7545;SDS011;3814;51.454;12.616;2022-12-28T06:58:19;4.80;;;1.10;;
7545;SDS011;3814;51.454;12.616;2022-12-28T07:00:44;5.40;;;1.10;;
7545;SDS011;3814;51.454;12.616;2022-12-28T07:03:10;6.25;;;1.30;;
7545;SDS011;3814;51.454;12.616;2022-12-28T07:05:35;3.22;;;1.20;;
7545;SDS011;3814;51.454;12.616;2022-12-28T07:08:00;2.72;;;1.25;;
7545;SDS011;3814;51.454;12.616;2022-12-28T07:10:26;2.90;;;1.13;;
7545;SDS011;3814;51.454;12.616;2022-12-28T07:12:51;3.17;;;1.25;;
7545;SDS011;3814;51.454;12.616;2022-12-28T07:15:16;3.72;;;1.20;;
7545;SDS011;3814;51.454;12.616;2022-12-28T07:17:41;3.90;;;1.10;;
7545;SDS011;3814;51.454;12.616;2022-12-28T07:20:07;3.95;;;1.20;;
7545;SDS011;3814;51.454;12.616;2022-12-28T07:22:32;3.20;;;1.35;;
7545;SDS011;3814;51.454;12.616;2022-12-28T07:24:58;3.63;;;1.60;;
7545;SDS011;3814;51.454;12.616;2022-12-28T07:27:23;2.95;;;1.10;;
7545;SDS011;3814;51.454;12.616;2022-12-28T07:29:48;6.38;;;1.30;;
7545;SDS011;3814;51.454;12.616;2022-12-28T07:32:14;3.10;;;1.10;;
7545;SDS011;3814;51.454;12.616;2022-12-28T07:34:39;3.50;;;1.30;;
7545;SDS011;3814;51.454;12.616;2022-12-28T07:37:04;5.32;;;1.50;;
7545;SDS011;3814;51.454;12.616;2022-12-28T07:39:29;3.85;;;1.20;;
7545;SDS011;3814;51.454;12.616;2022-12-28T08:41:05;3.45;;;1.30;;
7545;SDS011;3814;51.454;12.616;2022-12-28T08:43:34;2.97;;;1.60;;
7545;SDS011;3814;51.454;12.616;2022-12-28T08:46:00;4.22;;;1.50;;
7545;SDS011;3814;51.454;12.616;2022-12-28T09:45:35;3.95;;;1.90;;
7545;SDS011;3814;51.454;12.616;2022-12-28T09:51:15;4.22;;;1.80;;
7545;SDS011;3814;51.454;12.616;2022-12-28T09:53:41;6.68;;;2.00;;
7545;SDS011;3814;51.454;12.616;2022-12-28T09:58:53;3.95;;;2.00;;
7545;SDS011;3814;51.454;12.616;2022-12-28T10:06:30;4.90;;;2.10;;
7545;SDS011;3814;51.454;12.616;2022-12-28T10:19:29;7.75;;;2.90;;
7545;SDS011;3814;51.454;12.616;2022-12-28T10:32:53;5.00;;;2.20;;
7545;SDS011;3814;51.454;12.616;2022-12-28T10:35:40;3.92;;;2.03;;
7545;SDS011;3814;51.454;12.616;2022-12-28T10:54:07;6.15;;;1.75;;
7545;SDS011;3814;51.454;12.616;2022-12-28T11:05:37;5.38;;;1.77;;
7545;SDS011;3814;51.454;12.616;2022-12-28T11:10:57;2.78;;;1.55;;
7545;SDS011;3814;51.454;12.616;2022-12-28T11:13:23;6.13;;;1.80;;
7545;SDS011;3814;51.454;12.616;2022-12-28T11:15:48;4.22;;;1.70;;
7545;SDS011;3814;51.454;12.616;2022-12-28T11:18:14;3.38;;;1.63;;
7545;SDS011;3814;51.454;12.616;2022-12-28T11:20:45;3.30;;;1.90;;
7545;SDS011;3814;51.454;12.616;2022-12-28T11:23:22;4.00;;;1.80;;
7545;SDS011;3814;51.454;12.616;2022-12-28T11:25:49;4.10;;;1.60;;
7545;SDS011;3814;51.454;12.616;2022-12-28T12:35:55;3.35;;;1.45;;
7545;SDS011;3814;51.454;12.616;2022-12-28T12:38:42;3.47;;;1.40;;
7545;SDS011;3814;51.454;12.616;2022-12-28T12:41:57;3.70;;;1.50;;
7545;SDS011;3814;51.454;12.616;2022-12-28T13:06:01;3.88;;;1.70;;
7545;SDS011;3814;51.454;12.616;2022-12-28T13:11:20;3.97;;;1.23;;
7545;SDS011;3814;51.454;12.616;2022-12-28T13:13:46;3.58;;;1.40;;
7545;SDS011;3814;51.454;12.616;2022-12-28T13:16:14;2.40;;;1.40;;
7545;SDS011;3814;51.454;12.616;2022-12-28T13:18:52;2.78;;;1.30;;
7545;SDS011;3814;51.454;12.616;2022-12-28T13:21:19;3.45;;;1.30;;
7545;SDS011;3814;51.454;12.616;2022-12-28T13:23:46;3.15;;;1.20;;
7545;SDS011;3814;51.454;12.616;2022-12-28T13:26:11;2.80;;;1.50;;
7545;SDS011;3814;51.454;12.616;2022-12-28T13:28:43;3.22;;;1.42;;
7545;SDS011;3814;51.454;12.616;2022-12-28T13:31:16;2.63;;;1.50;;
7545;SDS011;3814;51.454;12.616;2022-12-28T13:33:56;3.42;;;1.40;;
7545;SDS011;3814;51.454;12.616;2022-12-28T13:36:23;2.92;;;1.40;;
7545;SDS011;3814;51.454;12.616;2022-12-28T13:39:10;3.28;;;1.50;;
7545;SDS011;3814;51.454;12.616;2022-12-28T13:41:39;2.90;;;1.30;;
7545;SDS011;3814;51.454;12.616;2022-12-28T13:46:36;4.22;;;1.33;;
7545;SDS011;3814;51.454;12.616;2022-12-28T13:49:04;3.13;;;1.40;;
7545;SDS011;3814;51.454;12.616;2022-12-28T13:51:30;3.63;;;1.30;;
7545;SDS011;3814;51.454;12.616;2022-12-28T13:53:57;4.50;;;1.15;;
7545;SDS011;3814;51.454;12.616;2022-12-28T13:56:23;3.80;;;1.58;;
7545;SDS011;3814;51.454;12.616;2022-12-28T13:58:49;4.57;;;2.00;;
7545;SDS011;3814;51.454;12.616;2022-12-28T14:01:20;4.93;;;2.17;;
7545;SDS011;3814;51.454;12.616;2022-12-28T14:03:47;5.57;;;2.10;;
7545;SDS011;3814;51.454;12.616;2022-12-28T14:06:13;3.60;;;2.22;;
7545;SDS011;3814;51.454;12.616;2022-12-28T14:08:40;5.97;;;2.25;;
7545;SDS011;3814;51.454;12.616;2022-12-28T14:26:48;3.25;;;1.08;;
7545;SDS011;3814;51.454;12.616;2022-12-28T14:29:33;2.85;;;1.40;;
7545;SDS011;3814;51.454;12.616;2022-12-28T14:32:00;4.03;;;1.40;;
7545;SDS011;3814;51.454;12.616;2022-12-28T14:34:29;3.53;;;1.52;;
7545;SDS011;3814;51.454;12.616;2022-12-28T14:36:56;3.28;;;1.80;;
7545;SDS011;3814;51.454;12.616;2022-12-28T14:41:50;8.32;;;4.38;;
7545;SDS011;3814;51.454;12.616;2022-12-28T14:44:24;7.32;;;4.40;;
7545;SDS011;3814;51.454;12.616;2022-12-28T14:46:52;4.07;;;1.77;;
7545;SDS011;3814;51.454;12.616;2022-12-28T14:51:53;4.55;;;2.40;;
7545;SDS011;3814;51.454;12.616;2022-12-28T14:54:22;4.65;;;1.60;;
7545;SDS011;3814;51.454;12.616;2022-12-28T14:57:04;4.25;;;1.38;;
7545;SDS011;3814;51.454;12.616;2022-12-28T14:59:49;4.15;;;1.40;;
7545;SDS011;3814;51.454;12.616;2022-12-28T15:04:58;2.65;;;1.08;;
7545;SDS011;3814;51.454;12.616;2022-12-28T15:07:23;2.40;;;1.20;;
7545;SDS011;3814;51.454;12.616;2022-12-28T15:09:49;2.55;;;1.30;;
7545;SDS011;3814;51.454;12.616;2022-12-28T15:12:15;3.03;;;1.40;;
7545;SDS011;3814;51.454;12.616;2022-12-28T15:14:41;2.50;;;1.30;;
7545;SDS011;3814;51.454;12.616;2022-12-28T15:17:07;2.08;;;1.10;;
7545;SDS011;3814;51.454;12.616;2022-12-28T15:19:33;6.53;;;1.35;;
7545;SDS011;3814;51.454;12.616;2022-12-28T15:21:59;4.13;;;1.23;;
7545;SDS011;3814;51.454;12.616;2022-12-28T15:24:24;4.80;;;1.25;;
7545;SDS011;3814;51.454;12.616;2022-12-28T15:26:51;5.55;;;2.65;;
7545;SDS011;3814;51.454;12.616;2022-12-28T15:29:16;4.50;;;1.60;;
7545;SDS011;3814;51.454;12.616;2022-12-28T15:31:41;2.55;;;1.30;;
7545;SDS011;3814;51.454;12.616;2022-12-28T15:34:07;3.50;;;1.45;;
7545;SDS011;3814;51.454;12.616;2022-12-28T15:36:32;2.40;;;1.20;;
7545;SDS011;3814;51.454;12.616;2022-12-28T15:38:57;2.92;;;1.10;;
7545;SDS011;3814;51.454;12.616;2022-12-28T15:41:23;3.83;;;1.40;;
7545;SDS011;3814;51.454;12.616;2022-12-28T15:44:07;3.00;;;1.27;;
7545;SDS011;3814;51.454;12.616;2022-12-28T15:46:33;3.83;;;1.60;;
7545;SDS011;3814;51.454;12.616;2022-12-28T15:49:02;2.67;;;1.25;;
7545;SDS011;3814;51.454;12.616;2022-12-28T15:51:28;3.95;;;1.50;;
7545;SDS011;3814;51.454;12.616;2022-12-28T15:53:53;2.95;;;1.38;;
7545;SDS011;3814;51.454;12.616;2022-12-28T15:56:20;6.15;;;1.88;;
7545;SDS011;3814;51.454;12.616;2022-12-28T15:58:46;3.58;;;1.70;;
7545;SDS011;3814;51.454;12.616;2022-12-28T16:01:12;4.25;;;1.88;;
7545;SDS011;3814;51.454;12.616;2022-12-28T16:03:37;5.20;;;1.63;;
7545;SDS011;3814;51.454;12.616;2022-12-28T16:06:03;3.67;;;1.70;;
7545;SDS011;3814;51.454;12.616;2022-12-28T16:08:29;3.30;;;1.60;;
7545;SDS011;3814;51.454;12.616;2022-12-28T16:11:05;5.10;;;1.88;;
7545;SDS011;3814;51.454;12.616;2022-12-28T16:13:34;4.70;;;1.70;;
7545;SDS011;3814;51.454;12.616;2022-12-28T16:16:03;5.75;;;1.60;;
7545;SDS011;3814;51.454;12.616;2022-12-28T16:18:31;5.18;;;2.00;;
7545;SDS011;3814;51.454;12.616;2022-12-28T16:21:00;3.60;;;1.80;;
7545;SDS011;3814;51.454;12.616;2022-12-28T16:23:30;4.50;;;1.67;;
7545;SDS011;3814;51.454;12.616;2022-12-28T16:25:57;3.13;;;1.50;;
7545;SDS011;3814;51.454;12.616;2022-12-28T16:28:23;2.97;;;1.40;;
7545;SDS011;3814;51.454;12.616;2022-12-28T16:30:49;3.58;;;1.40;;
7545;SDS011;3814;51.454;12.616;2022-12-28T16:33:14;3.60;;;1.42;;
7545;SDS011;3814;51.454;12.616;2022-12-28T16:35:40;3.75;;;1.50;;
7545;SDS011;3814;51.454;12.616;2022-12-28T16:38:05;4.72;;;1.60;;
7545;SDS011;3814;51.454;12.616;2022-12-28T16:40:31;5.68;;;1.52;;
7545;SDS011;3814;51.454;12.616;2022-12-28T16:42:58;3.17;;;1.60;;
7545;SDS011;3814;51.454;12.616;2022-12-28T16:45:23;3.95;;;1.50;;
7545;SDS011;3814;51.454;12.616;2022-12-28T16:47:48;3.92;;;1.55;;
7545;SDS011;3814;51.454;12.616;2022-12-28T16:50:15;2.47;;;1.30;;
7545;SDS011;3814;51.454;12.616;2022-12-28T16:52:40;3.08;;;1.30;;
7545;SDS011;3814;51.454;12.616;2022-12-28T16:55:06;3.55;;;1.48;;
7545;SDS011;3814;51.454;12.616;2022-12-28T16:57:31;2.50;;;1.48;;
7545;SDS011;3814;51.454;12.616;2022-12-28T16:59:57;4.97;;;1.80;;
7545;SDS011;3814;51.454;12.616;2022-12-28T17:02:22;4.10;;;1.55;;
7545;SDS011;3814;51.454;12.616;2022-12-28T17:04:47;3.72;;;1.60;;
7545;SDS011;3814;51.454;12.616;2022-12-28T17:07:13;4.07;;;1.48;;
7545;SDS011;3814;51.454;12.616;2022-12-28T17:09:38;4.47;;;1.42;;
7545;SDS011;3814;51.454;12.616;2022-12-28T17:12:03;4.25;;;1.60;;
7545;SDS011;3814;51.454;12.616;2022-12-28T17:14:29;3.72;;;1.40;;
7545;SDS011;3814;51.454;12.616;2022-12-28T17:16:54;2.88;;;1.30;;
7545;SDS011;3814;51.454;12.616;2022-12-28T17:19:20;3.78;;;1.45;;
7545;SDS011;3814;51.454;12.616;2022-12-28T17:21:45;2.17;;;1.10;;
7545;SDS011;3814;51.454;12.616;2022-12-28T17:24:10;5.30;;;1.63;;
7545;SDS011;3814;51.454;12.616;2022-12-28T17:26:35;2.90;;;1.35;;
7545;SDS011;3814;51.454;12.616;2022-12-28T17:29:01;3.35;;;1.40;;
7545;SDS011;3814;51.454;12.616;2022-12-28T17:31:26;4.00;;;1.58;;
7545;SDS011;3814;51.454;12.616;2022-12-28T17:33:53;3.05;;;1.60;;
7545;SDS011;3814;51.454;12.616;2022-12-28T17:36:19;4.05;;;1.77;;
7545;SDS011;3814;51.454;12.616;2022-12-28T17:38:45;4.05;;;1.80;;
7545;SDS011;3814;51.454;12.616;2022-12-28T17:41:11;7.68;;;1.80;;
7545;SDS011;3814;51.454;12.616;2022-12-28T17:43:44;3.75;;;1.63;;
7545;SDS011;3814;51.454;12.616;2022-12-28T17:46:13;4.43;;;1.52;;
7545;SDS011;3814;51.454;12.616;2022-12-28T17:48:38;4.60;;;1.67;;
7545;SDS011;3814;51.454;12.616;2022-12-28T17:51:04;2.85;;;1.58;;
7545;SDS011;3814;51.454;12.616;2022-12-28T17:53:30;3.33;;;1.73;;
7545;SDS011;3814;51.454;12.616;2022-12-28T17:55:59;4.00;;;1.55;;
7545;SDS011;3814;51.454;12.616;2022-12-28T17:58:25;5.50;;;1.80;;
7545;SDS011;3814;51.454;12.616;2022-12-28T18:00:53;2.88;;;1.48;;
7545;SDS011;3814;51.454;12.616;2022-12-28T18:03:19;4.80;;;1.60;;
7545;SDS011;3814;51.454;12.616;2022-12-28T18:05:48;5.18;;;1.60;;
7545;SDS011;3814;51.454;12.616;2022-12-28T18:08:15;5.32;;;1.48;;
7545;SDS011;3814;51.454;12.616;2022-12-28T18:10:40;4.53;;;1.45;;
7545;SDS011;3814;51.454;12.616;2022-12-28T18:13:05;3.78;;;1.60;;
7545;SDS011;3814;51.454;12.616;2022-12-28T18:15:31;3.78;;;1.45;;
7545;SDS011;3814;51.454;12.616;2022-12-28T18:17:57;2.15;;;1.40;;
7545;SDS011;3814;51.454;12.616;2022-12-28T18:20:23;3.75;;;1.55;;
7545;SDS011;3814;51.454;12.616;2022-12-28T18:22:48;6.35;;;2.90;;
7545;SDS011;3814;51.454;12.616;2022-12-28T18:25:14;4.78;;;2.10;;
7545;SDS011;3814;51.454;12.616;2022-12-28T18:27:39;6.40;;;1.70;;
7545;SDS011;3814;51.454;12.616;2022-12-28T18:30:04;4.07;;;1.90;;
7545;SDS011;3814;51.454;12.616;2022-12-28T18:32:30;9.45;;;3.20;;
7545;SDS011;3814;51.454;12.616;2022-12-28T18:34:55;5.15;;;1.90;;
7545;SDS011;3814;51.454;12.616;2022-12-28T18:37:21;4.18;;;1.50;;
7545;SDS011;3814;51.454;12.616;2022-12-28T18:39:46;3.53;;;1.50;;
7545;SDS011;3814;51.454;12.616;2022-12-28T18:42:11;3.70;;;1.60;;
7545;SDS011;3814;51.454;12.616;2022-12-28T18:44:38;3.17;;;1.58;;
7545;SDS011;3814;51.454;12.616;2022-12-28T18:47:04;4.72;;;1.63;;
7545;SDS011;3814;51.454;12.616;2022-12-28T18:49:29;4.55;;;1.63;;
7545;SDS011;3814;51.454;12.616;2022-12-28T18:51:54;5.30;;;1.70;;
7545;SDS011;3814;51.454;12.616;2022-12-28T18:54:20;3.45;;;1.80;;
7545;SDS011;3814;51.454;12.616;2022-12-28T18:56:45;4.40;;;1.95;;
7545;SDS011;3814;51.454;12.616;2022-12-28T18:59:11;3.55;;;1.67;;
7545;SDS011;3814;51.454;12.616;2022-12-28T19:01:36;7.65;;;1.63;;
7545;SDS011;3814;51.454;12.616;2022-12-28T19:04:03;4.45;;;1.60;;
7545;SDS011;3814;51.454;12.616;2022-12-28T19:06:31;3.35;;;1.52;;
7545;SDS011;3814;51.454;12.616;2022-12-28T19:08:57;3.63;;;1.60;;
7545;SDS011;3814;51.454;12.616;2022-12-28T19:11:23;4.13;;;1.42;;
7545;SDS011;3814;51.454;12.616;2022-12-28T19:13:49;7.07;;;1.98;;
7545;SDS011;3814;51.454;12.616;2022-12-28T19:16:15;4.80;;;1.75;;
7545;SDS011;3814;51.454;12.616;2022-12-28T19:18:42;4.90;;;1.83;;
7545;SDS011;3814;51.454;12.616;2022-12-28T19:23:53;3.67;;;1.70;;
7545;SDS011;3814;51.454;12.616;2022-12-28T19:26:20;5.38;;;1.60;;
7545;SDS011;3814;51.454;12.616;2022-12-28T19:28:46;4.75;;;2.00;;
7545;SDS011;3814;51.454;12.616;2022-12-28T19:31:11;3.50;;;1.52;;
7545;SDS011;3814;51.454;12.616;2022-12-28T19:33:37;4.55;;;2.10;;
7545;SDS011;3814;51.454;12.616;2022-12-28T19:36:02;5.90;;;1.67;;
7545;SDS011;3814;51.454;12.616;2022-12-28T19:38:28;3.33;;;1.70;;
7545;SDS011;3814;51.454;12.616;2022-12-28T19:40:53;3.20;;;1.70;;
7545;SDS011;3814;51.454;12.616;2022-12-28T19:43:19;3.85;;;1.55;;
7545;SDS011;3814;51.454;12.616;2022-12-28T19:45:45;3.20;;;1.60;;
7545;SDS011;3814;51.454;12.616;2022-12-28T19:48:10;3.22;;;1.60;;
7545;SDS011;3814;51.454;12.616;2022-12-28T19:50:35;3.83;;;1.67;;
7545;SDS011;3814;51.454;12.616;2022-12-28T19:53:02;4.90;;;1.60;;
7545;SDS011;3814;51.454;12.616;2022-12-28T19:55:27;4.53;;;2.10;;
7545;SDS011;3814;51.454;12.616;2022-12-28T19:57:53;5.65;;;1.70;;
7545;SDS011;3814;51.454;12.616;2022-12-28T20:00:18;4.30;;;1.70;;
7545;SDS011;3814;51.454;12.616;2022-12-28T20:02:44;3.80;;;1.80;;
7545;SDS011;3814;51.454;12.616;2022-12-28T20:05:09;3.17;;;1.60;;
7545;SDS011;3814;51.454;12.616;2022-12-28T20:07:38;4.03;;;1.60;;
7545;SDS011;3814;51.454;12.616;2022-12-28T20:10:06;5.25;;;1.70;;
7545;SDS011;3814;51.454;12.616;2022-12-28T20:12:32;4.03;;;1.50;;
7545;SDS011;3814;51.454;12.616;2022-12-28T20:14:57;4.28;;;1.70;;
7545;SDS011;3814;51.454;12.616;2022-12-28T20:17:22;3.03;;;1.40;;
7545;SDS011;3814;51.454;12.616;2022-12-28T20:19:48;3.67;;;1.48;;
7545;SDS011;3814;51.454;12.616;2022-12-28T20:22:13;4.43;;;1.77;;
7545;SDS011;3814;51.454;12.616;2022-12-28T20:24:39;4.47;;;1.75;;
7545;SDS011;3814;51.454;12.616;2022-12-28T20:27:05;4.82;;;1.67;;
7545;SDS011;3814;51.454;12.616;2022-12-28T20:29:30;4.07;;;1.52;;